Lodi, WI (53555)

6:11 AM CST on December 21, 2014 (GMT -0600)
APRSWXNET Lodi WI US | Change Station
CLOSE
Current Station
Personal Weather Station
Location: Lodi, WI
Elevation: 877 ft
Nearby Weather Stations

Elev 877 ft 43.32 °N, 89.54 °W | Updated 41 minutes ago

Overcast
Overcast
32 °F
Feels Like 32 °F
N
0
Wind Variable Wind from SSE
Gusts 4.0 mph

Today
High -- | Low -- °F
--% Chance of Precip.
Yesterday
High -- | Low -- °F
Precip. -- in
7:27 AM 4:25 PM
Waning Crescent, 0% visible
Pressure 30.12 in
Visibility 2.0 miles
Clouds Overcast 400 ft
Windchill 32 °F
Dew Point 30 °F
Humidity 94%
Rainfall 0.00 in
Snow Depth Not available.
UV 0 out of 12
Pollen .10 out of 12
Air Quality Not available.
Flu Activity Not available.
METAR KC29 211150Z AUTO 17006KT 2SM OVC004 01/00 A3012 RMK AO1 T00050001 10005 20000

More Conditions Fewer Conditions

Pressure 30.12 in
Visibility 2.0 miles
Clouds Overcast 400 ft
Windchill 32 °F
Dew Point 30 °F
Humidity 94%
Rainfall 0.00 in
Snow Depth Not available.
UV 0 out of 12
Pollen .10 out of 12
Air Quality Not available.
Flu Activity Not available.
METAR KC29 211150Z AUTO 17006KT 2SM OVC004 01/00 A3012 RMK AO1 T00050001 10005 20000

More Conditions Fewer Conditions

10-Day Weather Forecast

Almanac

Astronomy

Dec. 21, 2014 Rise Set
Actual Time
Civil Twilight
Nautical Twilight
Astronomical Twilight
Moon
Length of Visible Light
Length of Day
Tomorrow will be .
, % of the Moon is Illuminated

Today's Extremes

State Highs State Lows

Community

WunderPhotos

Upload Photos

1,779,371 photos uploaded!

WunderBlogs® & News

Nearby

Air Quality

  Air Quality AQ Index Pollutant
Not available.

Snow Depth

Station Depth Elevation

Earthquake Activity

City Distance Mag. Time & Date
Minimum magnitude displayed is 2.5.

Coastal Water Temperatures

Place Temperature

Nearby Weather Stations